sensor_id;sensor_type;location;lat;lon;timestamp;P1;durP1;ratioP1;P2;durP2;ratioP2
15913;SDS011;8055;51.930;8.840;2022-12-18T00:01:27;67.18;;;32.05;;
15913;SDS011;8055;51.930;8.840;2022-12-18T00:03:54;67.85;;;31.85;;
15913;SDS011;8055;51.930;8.840;2022-12-18T00:06:21;59.65;;;30.20;;
15913;SDS011;8055;51.930;8.840;2022-12-18T00:08:47;61.28;;;30.58;;
15913;SDS011;8055;51.930;8.840;2022-12-18T00:11:14;64.25;;;31.30;;
15913;SDS011;8055;51.930;8.840;2022-12-18T00:13:41;66.15;;;32.35;;
15913;SDS011;8055;51.930;8.840;2022-12-18T00:16:08;66.07;;;31.23;;
15913;SDS011;8055;51.930;8.840;2022-12-18T00:18:36;63.28;;;33.15;;
15913;SDS011;8055;51.930;8.840;2022-12-18T00:21:02;63.00;;;34.63;;
15913;SDS011;8055;51.930;8.840;2022-12-18T00:23:30;62.63;;;32.88;;
15913;SDS011;8055;51.930;8.840;2022-12-18T00:26:00;63.15;;;32.53;;
15913;SDS011;8055;51.930;8.840;2022-12-18T00:28:27;62.22;;;32.13;;
15913;SDS011;8055;51.930;8.840;2022-12-18T00:31:08;71.93;;;34.70;;
15913;SDS011;8055;51.930;8.840;2022-12-18T00:33:36;71.50;;;35.70;;
15913;SDS011;8055;51.930;8.840;2022-12-18T00:36:06;65.15;;;34.10;;
15913;SDS011;8055;51.930;8.840;2022-12-18T00:38:34;62.75;;;32.08;;
15913;SDS011;8055;51.930;8.840;2022-12-18T00:41:00;72.40;;;35.78;;
15913;SDS011;8055;51.930;8.840;2022-12-18T00:43:26;67.40;;;33.45;;
15913;SDS011;8055;51.930;8.840;2022-12-18T00:45:51;64.80;;;32.03;;
15913;SDS011;8055;51.930;8.840;2022-12-18T00:48:17;63.22;;;31.52;;
15913;SDS011;8055;51.930;8.840;2022-12-18T00:50:42;66.93;;;32.15;;
15913;SDS011;8055;51.930;8.840;2022-12-18T00:53:08;60.13;;;29.90;;
15913;SDS011;8055;51.930;8.840;2022-12-18T00:55:39;58.08;;;29.85;;
15913;SDS011;8055;51.930;8.840;2022-12-18T00:58:05;62.90;;;31.10;;
15913;SDS011;8055;51.930;8.840;2022-12-18T01:00:32;61.42;;;31.63;;
15913;SDS011;8055;51.930;8.840;2022-12-18T01:02:58;62.03;;;31.27;;
15913;SDS011;8055;51.930;8.840;2022-12-18T01:05:23;72.60;;;32.75;;
15913;SDS011;8055;51.930;8.840;2022-12-18T01:07:49;61.92;;;31.67;;
15913;SDS011;8055;51.930;8.840;2022-12-18T01:10:14;72.10;;;33.53;;
15913;SDS011;8055;51.930;8.840;2022-12-18T01:12:40;54.05;;;27.48;;
15913;SDS011;8055;51.930;8.840;2022-12-18T01:15:05;60.53;;;31.05;;
15913;SDS011;8055;51.930;8.840;2022-12-18T01:17:32;56.63;;;28.70;;
15913;SDS011;8055;51.930;8.840;2022-12-18T01:19:57;60.88;;;28.38;;
15913;SDS011;8055;51.930;8.840;2022-12-18T01:22:23;58.70;;;28.77;;
15913;SDS011;8055;51.930;8.840;2022-12-18T01:24:48;56.92;;;28.35;;
15913;SDS011;8055;51.930;8.840;2022-12-18T01:27:13;59.10;;;28.77;;
15913;SDS011;8055;51.930;8.840;2022-12-18T01:29:39;48.30;;;24.90;;
15913;SDS011;8055;51.930;8.840;2022-12-18T01:32:04;51.55;;;25.85;;
15913;SDS011;8055;51.930;8.840;2022-12-18T01:34:29;52.80;;;26.30;;
15913;SDS011;8055;51.930;8.840;2022-12-18T01:36:55;54.88;;;25.83;;
15913;SDS011;8055;51.930;8.840;2022-12-18T01:39:20;50.92;;;24.38;;
15913;SDS011;8055;51.930;8.840;2022-12-18T01:41:46;49.72;;;24.52;;
15913;SDS011;8055;51.930;8.840;2022-12-18T01:47:12;51.75;;;23.55;;
15913;SDS011;8055;51.930;8.840;2022-12-18T01:49:43;56.40;;;25.95;;
15913;SDS011;8055;51.930;8.840;2022-12-18T01:52:08;55.30;;;25.73;;
15913;SDS011;8055;51.930;8.840;2022-12-18T01:54:34;49.20;;;24.35;;
15913;SDS011;8055;51.930;8.840;2022-12-18T01:56:59;62.10;;;25.40;;
15913;SDS011;8055;51.930;8.840;2022-12-18T01:59:26;55.33;;;24.23;;
15913;SDS011;8055;51.930;8.840;2022-12-18T02:01:52;51.17;;;24.23;;
15913;SDS011;8055;51.930;8.840;2022-12-18T02:04:19;55.33;;;24.40;;
15913;SDS011;8055;51.930;8.840;2022-12-18T02:06:46;56.13;;;24.15;;
15913;SDS011;8055;51.930;8.840;2022-12-18T02:09:20;52.63;;;23.30;;
15913;SDS011;8055;51.930;8.840;2022-12-18T02:11:59;49.30;;;24.52;;
15913;SDS011;8055;51.930;8.840;2022-12-18T02:14:38;56.28;;;26.45;;
15913;SDS011;8055;51.930;8.840;2022-12-18T02:17:11;56.33;;;26.63;;
15913;SDS011;8055;51.930;8.840;2022-12-18T02:28:16;55.75;;;26.48;;
15913;SDS011;8055;51.930;8.840;2022-12-18T02:30:47;59.58;;;26.48;;
15913;SDS011;8055;51.930;8.840;2022-12-18T02:33:16;57.00;;;26.58;;
15913;SDS011;8055;51.930;8.840;2022-12-18T02:35:45;58.63;;;26.33;;
15913;SDS011;8055;51.930;8.840;2022-12-18T02:38:12;56.47;;;26.85;;
15913;SDS011;8055;51.930;8.840;2022-12-18T02:40:40;53.75;;;25.45;;
15913;SDS011;8055;51.930;8.840;2022-12-18T02:43:14;60.72;;;26.13;;
15913;SDS011;8055;51.930;8.840;2022-12-18T02:45:46;56.65;;;26.27;;
15913;SDS011;8055;51.930;8.840;2022-12-18T02:48:13;61.88;;;26.17;;
15913;SDS011;8055;51.930;8.840;2022-12-18T02:50:40;55.45;;;27.00;;
15913;SDS011;8055;51.930;8.840;2022-12-18T02:56:03;59.22;;;26.80;;
15913;SDS011;8055;51.930;8.840;2022-12-18T03:01:38;52.72;;;23.42;;
15913;SDS011;8055;51.930;8.840;2022-12-18T03:07:09;47.67;;;21.52;;
15913;SDS011;8055;51.930;8.840;2022-12-18T03:09:41;47.15;;;22.25;;
15913;SDS011;8055;51.930;8.840;2022-12-18T03:14:54;45.60;;;21.90;;
15913;SDS011;8055;51.930;8.840;2022-12-18T03:17:40;47.30;;;22.52;;
15913;SDS011;8055;51.930;8.840;2022-12-18T03:20:13;45.47;;;22.13;;
15913;SDS011;8055;51.930;8.840;2022-12-18T03:22:42;49.67;;;21.38;;
15913;SDS011;8055;51.930;8.840;2022-12-18T03:25:11;46.95;;;21.67;;
15913;SDS011;8055;51.930;8.840;2022-12-18T03:27:39;42.00;;;19.90;;
15913;SDS011;8055;51.930;8.840;2022-12-18T03:30:09;44.15;;;20.55;;
15913;SDS011;8055;51.930;8.840;2022-12-18T03:32:47;44.70;;;21.58;;
15913;SDS011;8055;51.930;8.840;2022-12-18T03:35:37;49.17;;;20.20;;
15913;SDS011;8055;51.930;8.840;2022-12-18T03:38:06;38.67;;;19.42;;
15913;SDS011;8055;51.930;8.840;2022-12-18T03:40:35;40.15;;;18.80;;
15913;SDS011;8055;51.930;8.840;2022-12-18T03:43:16;46.45;;;19.73;;
15913;SDS011;8055;51.930;8.840;2022-12-18T03:45:51;42.42;;;18.95;;
15913;SDS011;8055;51.930;8.840;2022-12-18T03:48:31;45.92;;;21.30;;
15913;SDS011;8055;51.930;8.840;2022-12-18T03:51:05;41.08;;;19.30;;
15913;SDS011;8055;51.930;8.840;2022-12-18T03:53:49;41.83;;;20.20;;
15913;SDS011;8055;51.930;8.840;2022-12-18T03:56:21;42.13;;;20.73;;
15913;SDS011;8055;51.930;8.840;2022-12-18T03:58:50;43.22;;;18.77;;
15913;SDS011;8055;51.930;8.840;2022-12-18T04:01:18;37.60;;;18.55;;
15913;SDS011;8055;51.930;8.840;2022-12-18T04:03:50;39.63;;;17.80;;
15913;SDS011;8055;51.930;8.840;2022-12-18T04:06:17;36.15;;;18.10;;
15913;SDS011;8055;51.930;8.840;2022-12-18T04:08:43;38.38;;;18.63;;
15913;SDS011;8055;51.930;8.840;2022-12-18T04:11:09;39.72;;;19.10;;
15913;SDS011;8055;51.930;8.840;2022-12-18T04:13:35;55.33;;;19.15;;
15913;SDS011;8055;51.930;8.840;2022-12-18T04:16:02;37.40;;;18.30;;
15913;SDS011;8055;51.930;8.840;2022-12-18T04:18:28;38.28;;;18.70;;
15913;SDS011;8055;51.930;8.840;2022-12-18T04:20:53;43.38;;;20.48;;
15913;SDS011;8055;51.930;8.840;2022-12-18T04:23:19;40.92;;;18.73;;
15913;SDS011;8055;51.930;8.840;2022-12-18T04:25:44;38.10;;;18.17;;
15913;SDS011;8055;51.930;8.840;2022-12-18T04:28:11;34.70;;;16.75;;
15913;SDS011;8055;51.930;8.840;2022-12-18T04:30:37;36.78;;;16.63;;
15913;SDS011;8055;51.930;8.840;2022-12-18T04:33:03;38.95;;;18.35;;
15913;SDS011;8055;51.930;8.840;2022-12-18T04:35:28;38.30;;;19.00;;
15913;SDS011;8055;51.930;8.840;2022-12-18T04:37:53;39.70;;;19.30;;
15913;SDS011;8055;51.930;8.840;2022-12-18T04:40:19;44.90;;;19.00;;
15913;SDS011;8055;51.930;8.840;2022-12-18T04:42:44;42.70;;;20.55;;
15913;SDS011;8055;51.930;8.840;2022-12-18T04:45:10;39.40;;;19.08;;
15913;SDS011;8055;51.930;8.840;2022-12-18T04:47:35;39.72;;;18.35;;
15913;SDS011;8055;51.930;8.840;2022-12-18T04:50:00;38.92;;;18.05;;
15913;SDS011;8055;51.930;8.840;2022-12-18T04:52:26;39.00;;;17.25;;
15913;SDS011;8055;51.930;8.840;2022-12-18T04:54:51;37.72;;;18.45;;
15913;SDS011;8055;51.930;8.840;2022-12-18T04:57:16;35.95;;;17.35;;
15913;SDS011;8055;51.930;8.840;2022-12-18T04:59:43;38.78;;;18.48;;
15913;SDS011;8055;51.930;8.840;2022-12-18T05:02:08;39.53;;;17.83;;
15913;SDS011;8055;51.930;8.840;2022-12-18T05:04:34;44.00;;;18.92;;
15913;SDS011;8055;51.930;8.840;2022-12-18T05:06:59;44.70;;;20.52;;
15913;SDS011;8055;51.930;8.840;2022-12-18T05:09:24;37.95;;;18.75;;
15913;SDS011;8055;51.930;8.840;2022-12-18T05:11:50;37.00;;;18.38;;
15913;SDS011;8055;51.930;8.840;2022-12-18T05:14:15;39.65;;;18.20;;
15913;SDS011;8055;51.930;8.840;2022-12-18T05:16:40;35.50;;;18.27;;
15913;SDS011;8055;51.930;8.840;2022-12-18T05:19:06;38.80;;;18.20;;
15913;SDS011;8055;51.930;8.840;2022-12-18T05:21:31;36.50;;;17.33;;
15913;SDS011;8055;51.930;8.840;2022-12-18T05:23:57;39.13;;;19.10;;
15913;SDS011;8055;51.930;8.840;2022-12-18T05:26:22;44.75;;;19.17;;
15913;SDS011;8055;51.930;8.840;2022-12-18T05:28:47;37.03;;;17.27;;
15913;SDS011;8055;51.930;8.840;2022-12-18T05:31:13;36.67;;;17.40;;
15913;SDS011;8055;51.930;8.840;2022-12-18T05:33:38;39.15;;;18.60;;
15913;SDS011;8055;51.930;8.840;2022-12-18T05:36:05;35.50;;;17.83;;
15913;SDS011;8055;51.930;8.840;2022-12-18T05:38:33;36.45;;;16.83;;
15913;SDS011;8055;51.930;8.840;2022-12-18T05:41:00;38.75;;;18.35;;
15913;SDS011;8055;51.930;8.840;2022-12-18T05:43:25;36.53;;;18.23;;
15913;SDS011;8055;51.930;8.840;2022-12-18T05:45:51;42.40;;;18.55;;
15913;SDS011;8055;51.930;8.840;2022-12-18T05:48:17;40.15;;;17.98;;
15913;SDS011;8055;51.930;8.840;2022-12-18T05:50:44;44.40;;;17.95;;
15913;SDS011;8055;51.930;8.840;2022-12-18T05:53:11;35.97;;;17.13;;
15913;SDS011;8055;51.930;8.840;2022-12-18T05:55:37;37.42;;;17.42;;
15913;SDS011;8055;51.930;8.840;2022-12-18T05:58:04;35.38;;;17.35;;
15913;SDS011;8055;51.930;8.840;2022-12-18T06:00:31;36.85;;;18.08;;
15913;SDS011;8055;51.930;8.840;2022-12-18T06:02:59;37.05;;;18.17;;
15913;SDS011;8055;51.930;8.840;2022-12-18T06:05:25;36.97;;;17.38;;
15913;SDS011;8055;51.930;8.840;2022-12-18T06:07:51;43.95;;;18.75;;
15913;SDS011;8055;51.930;8.840;2022-12-18T06:10:16;37.85;;;18.38;;
15913;SDS011;8055;51.930;8.840;2022-12-18T06:12:42;36.17;;;18.20;;
15913;SDS011;8055;51.930;8.840;2022-12-18T06:15:07;45.65;;;18.58;;
15913;SDS011;8055;51.930;8.840;2022-12-18T06:17:33;36.47;;;17.80;;
15913;SDS011;8055;51.930;8.840;2022-12-18T06:19:59;44.38;;;19.85;;
15913;SDS011;8055;51.930;8.840;2022-12-18T06:22:25;37.38;;;19.33;;
15913;SDS011;8055;51.930;8.840;2022-12-18T06:24:51;36.92;;;17.77;;
15913;SDS011;8055;51.930;8.840;2022-12-18T06:27:16;39.40;;;19.80;;
15913;SDS011;8055;51.930;8.840;2022-12-18T06:29:41;36.65;;;17.58;;
15913;SDS011;8055;51.930;8.840;2022-12-18T06:32:07;37.80;;;19.23;;
15913;SDS011;8055;51.930;8.840;2022-12-18T06:34:33;44.30;;;18.65;;
15913;SDS011;8055;51.930;8.840;2022-12-18T06:36:59;38.78;;;19.60;;
15913;SDS011;8055;51.930;8.840;2022-12-18T06:39:26;36.80;;;18.45;;
15913;SDS011;8055;51.930;8.840;2022-12-18T06:41:52;41.63;;;20.35;;
15913;SDS011;8055;51.930;8.840;2022-12-18T06:44:17;40.83;;;18.80;;
15913;SDS011;8055;51.930;8.840;2022-12-18T06:46:43;39.63;;;18.17;;
15913;SDS011;8055;51.930;8.840;2022-12-18T06:49:08;37.53;;;17.95;;
15913;SDS011;8055;51.930;8.840;2022-12-18T06:51:34;41.83;;;18.33;;
15913;SDS011;8055;51.930;8.840;2022-12-18T06:54:00;41.22;;;19.15;;
15913;SDS011;8055;51.930;8.840;2022-12-18T06:56:25;35.97;;;16.65;;
15913;SDS011;8055;51.930;8.840;2022-12-18T06:58:51;37.03;;;16.75;;
15913;SDS011;8055;51.930;8.840;2022-12-18T07:01:16;41.08;;;18.65;;
15913;SDS011;8055;51.930;8.840;2022-12-18T07:03:43;37.45;;;17.65;;
15913;SDS011;8055;51.930;8.840;2022-12-18T07:06:15;38.40;;;17.63;;
15913;SDS011;8055;51.930;8.840;2022-12-18T07:08:42;37.25;;;18.73;;
15913;SDS011;8055;51.930;8.840;2022-12-18T07:11:08;40.50;;;17.92;;
15913;SDS011;8055;51.930;8.840;2022-12-18T07:13:33;36.28;;;17.98;;
15913;SDS011;8055;51.930;8.840;2022-12-18T07:16:05;39.15;;;16.90;;
15913;SDS011;8055;51.930;8.840;2022-12-18T07:18:38;36.72;;;17.30;;
15913;SDS011;8055;51.930;8.840;2022-12-18T07:21:08;41.72;;;17.98;;
15913;SDS011;8055;51.930;8.840;2022-12-18T07:23:35;37.90;;;16.67;;
15913;SDS011;8055;51.930;8.840;2022-12-18T07:26:08;38.55;;;17.77;;
15913;SDS011;8055;51.930;8.840;2022-12-18T07:28:35;33.90;;;16.75;;
15913;SDS011;8055;51.930;8.840;2022-12-18T07:31:02;39.65;;;19.05;;
15913;SDS011;8055;51.930;8.840;2022-12-18T07:33:29;38.78;;;18.15;;
15913;SDS011;8055;51.930;8.840;2022-12-18T07:35:55;41.15;;;19.35;;
15913;SDS011;8055;51.930;8.840;2022-12-18T07:38:21;38.40;;;17.50;;
15913;SDS011;8055;51.930;8.840;2022-12-18T07:40:47;40.42;;;18.60;;
15913;SDS011;8055;51.930;8.840;2022-12-18T07:43:12;36.58;;;17.75;;
15913;SDS011;8055;51.930;8.840;2022-12-18T07:45:37;38.90;;;18.10;;
15913;SDS011;8055;51.930;8.840;2022-12-18T07:48:03;38.15;;;19.58;;
15913;SDS011;8055;51.930;8.840;2022-12-18T07:50:29;36.85;;;18.48;;
15913;SDS011;8055;51.930;8.840;2022-12-18T07:52:54;39.13;;;19.00;;
15913;SDS011;8055;51.930;8.840;2022-12-18T07:55:19;42.05;;;18.00;;
15913;SDS011;8055;51.930;8.840;2022-12-18T07:57:45;36.30;;;18.23;;
15913;SDS011;8055;51.930;8.840;2022-12-18T08:00:10;39.15;;;17.80;;
15913;SDS011;8055;51.930;8.840;2022-12-18T08:02:37;36.30;;;17.17;;
15913;SDS011;8055;51.930;8.840;2022-12-18T08:05:02;39.92;;;17.42;;
15913;SDS011;8055;51.930;8.840;2022-12-18T08:07:28;33.08;;;17.55;;
15913;SDS011;8055;51.930;8.840;2022-12-18T08:09:53;36.50;;;18.38;;
15913;SDS011;8055;51.930;8.840;2022-12-18T08:12:18;43.25;;;17.15;;
15913;SDS011;8055;51.930;8.840;2022-12-18T08:14:44;40.15;;;18.88;;
15913;SDS011;8055;51.930;8.840;2022-12-18T08:17:09;39.63;;;20.10;;
15913;SDS011;8055;51.930;8.840;2022-12-18T08:19:35;41.10;;;18.60;;
15913;SDS011;8055;51.930;8.840;2022-12-18T08:22:00;39.83;;;17.20;;
15913;SDS011;8055;51.930;8.840;2022-12-18T08:24:25;39.95;;;18.63;;
15913;SDS011;8055;51.930;8.840;2022-12-18T08:26:51;33.55;;;17.25;;
15913;SDS011;8055;51.930;8.840;2022-12-18T08:29:16;36.92;;;16.58;;
15913;SDS011;8055;51.930;8.840;2022-12-18T08:31:42;37.38;;;18.13;;
15913;SDS011;8055;51.930;8.840;2022-12-18T08:34:07;44.75;;;19.92;;
15913;SDS011;8055;51.930;8.840;2022-12-18T08:36:33;41.00;;;19.00;;
15913;SDS011;8055;51.930;8.840;2022-12-18T08:38:58;36.72;;;16.98;;
15913;SDS011;8055;51.930;8.840;2022-12-18T08:41:23;37.55;;;17.60;;
15913;SDS011;8055;51.930;8.840;2022-12-18T08:43:49;29.92;;;15.80;;
15913;SDS011;8055;51.930;8.840;2022-12-18T08:46:37;35.72;;;16.63;;
15913;SDS011;8055;51.930;8.840;2022-12-18T08:49:04;36.78;;;16.27;;
15913;SDS011;8055;51.930;8.840;2022-12-18T08:51:30;32.42;;;16.67;;
15913;SDS011;8055;51.930;8.840;2022-12-18T08:53:56;29.95;;;14.55;;
15913;SDS011;8055;51.930;8.840;2022-12-18T08:56:21;27.50;;;14.75;;
15913;SDS011;8055;51.930;8.840;2022-12-18T08:58:47;33.35;;;15.68;;
15913;SDS011;8055;51.930;8.840;2022-12-18T09:01:12;27.40;;;13.80;;
15913;SDS011;8055;51.930;8.840;2022-12-18T09:03:38;29.02;;;13.93;;
15913;SDS011;8055;51.930;8.840;2022-12-18T09:06:04;29.48;;;13.57;;
15913;SDS011;8055;51.930;8.840;2022-12-18T09:08:30;32.05;;;14.95;;
15913;SDS011;8055;51.930;8.840;2022-12-18T09:10:59;30.25;;;14.18;;
15913;SDS011;8055;51.930;8.840;2022-12-18T09:13:25;31.65;;;14.45;;
15913;SDS011;8055;51.930;8.840;2022-12-18T09:15:51;28.73;;;13.40;;
15913;SDS011;8055;51.930;8.840;2022-12-18T09:18:19;26.70;;;14.07;;
15913;SDS011;8055;51.930;8.840;2022-12-18T09:20:45;30.02;;;13.68;;
15913;SDS011;8055;51.930;8.840;2022-12-18T09:23:11;30.10;;;14.07;;
15913;SDS011;8055;51.930;8.840;2022-12-18T09:25:37;29.45;;;13.18;;
15913;SDS011;8055;51.930;8.840;2022-12-18T09:28:04;26.52;;;12.63;;
15913;SDS011;8055;51.930;8.840;2022-12-18T09:30:36;24.13;;;12.65;;
15913;SDS011;8055;51.930;8.840;2022-12-18T09:33:02;25.70;;;13.82;;
15913;SDS011;8055;51.930;8.840;2022-12-18T09:35:28;29.52;;;14.15;;
15913;SDS011;8055;51.930;8.840;2022-12-18T09:37:53;25.27;;;12.77;;
15913;SDS011;8055;51.930;8.840;2022-12-18T09:40:20;23.40;;;12.23;;
15913;SDS011;8055;51.930;8.840;2022-12-18T09:42:49;27.10;;;12.50;;
15913;SDS011;8055;51.930;8.840;2022-12-18T09:45:19;29.83;;;12.18;;
15913;SDS011;8055;51.930;8.840;2022-12-18T09:47:45;24.85;;;12.65;;
15913;SDS011;8055;51.930;8.840;2022-12-18T09:50:31;29.35;;;12.80;;
15913;SDS011;8055;51.930;8.840;2022-12-18T09:53:03;26.48;;;13.00;;
15913;SDS011;8055;51.930;8.840;2022-12-18T09:55:42;27.23;;;12.65;;
15913;SDS011;8055;51.930;8.840;2022-12-18T10:00:35;20.65;;;11.55;;
15913;SDS011;8055;51.930;8.840;2022-12-18T10:03:03;22.70;;;11.98;;
15913;SDS011;8055;51.930;8.840;2022-12-18T10:05:42;24.10;;;11.98;;
15913;SDS011;8055;51.930;8.840;2022-12-18T10:08:33;23.98;;;10.48;;
15913;SDS011;8055;51.930;8.840;2022-12-18T10:11:26;20.42;;;11.00;;
15913;SDS011;8055;51.930;8.840;2022-12-18T10:19:36;20.60;;;8.80;;
15913;SDS011;8055;51.930;8.840;2022-12-18T10:27:48;18.35;;;10.05;;
15913;SDS011;8055;51.930;8.840;2022-12-18T10:30:20;22.77;;;11.32;;
15913;SDS011;8055;51.930;8.840;2022-12-18T10:32:48;21.58;;;11.15;;
15913;SDS011;8055;51.930;8.840;2022-12-18T10:35:26;22.55;;;11.48;;
15913;SDS011;8055;51.930;8.840;2022-12-18T10:43:30;24.70;;;11.25;;
15913;SDS011;8055;51.930;8.840;2022-12-18T10:46:02;25.00;;;11.57;;
15913;SDS011;8055;51.930;8.840;2022-12-18T10:48:28;20.40;;;11.48;;
15913;SDS011;8055;51.930;8.840;2022-12-18T10:50:55;22.27;;;11.57;;
15913;SDS011;8055;51.930;8.840;2022-12-18T10:53:25;22.50;;;11.15;;
15913;SDS011;8055;51.930;8.840;2022-12-18T10:55:54;23.63;;;12.35;;
15913;SDS011;8055;51.930;8.840;2022-12-18T10:58:24;22.45;;;11.38;;
15913;SDS011;8055;51.930;8.840;2022-12-18T11:01:16;22.73;;;12.07;;
15913;SDS011;8055;51.930;8.840;2022-12-18T11:06:20;20.88;;;10.57;;
15913;SDS011;8055;51.930;8.840;2022-12-18T11:08:59;22.58;;;10.35;;
15913;SDS011;8055;51.930;8.840;2022-12-18T11:11:27;22.38;;;11.15;;
15913;SDS011;8055;51.930;8.840;2022-12-18T11:14:12;22.48;;;11.20;;
15913;SDS011;8055;51.930;8.840;2022-12-18T11:16:44;21.50;;;10.90;;
15913;SDS011;8055;51.930;8.840;2022-12-18T11:19:20;23.48;;;11.48;;
15913;SDS011;8055;51.930;8.840;2022-12-18T11:21:52;21.40;;;11.10;;
15913;SDS011;8055;51.930;8.840;2022-12-18T11:24:24;20.17;;;10.43;;
15913;SDS011;8055;51.930;8.840;2022-12-18T11:27:01;17.75;;;9.60;;
15913;SDS011;8055;51.930;8.840;2022-12-18T11:29:34;20.95;;;10.02;;
15913;SDS011;8055;51.930;8.840;2022-12-18T11:34:49;20.98;;;9.27;;
15913;SDS011;8055;51.930;8.840;2022-12-18T11:37:24;17.50;;;8.73;;
15913;SDS011;8055;51.930;8.840;2022-12-18T11:40:01;19.88;;;9.52;;
15913;SDS011;8055;51.930;8.840;2022-12-18T11:42:35;15.77;;;8.35;;
15913;SDS011;8055;51.930;8.840;2022-12-18T11:47:42;17.30;;;8.88;;
15913;SDS011;8055;51.930;8.840;2022-12-18T11:50:21;17.42;;;9.10;;
15913;SDS011;8055;51.930;8.840;2022-12-18T11:52:51;17.85;;;9.35;;
15913;SDS011;8055;51.930;8.840;2022-12-18T12:00:45;18.77;;;8.57;;
15913;SDS011;8055;51.930;8.840;2022-12-18T12:06:23;14.55;;;8.32;;
15913;SDS011;8055;51.930;8.840;2022-12-18T12:09:02;14.82;;;8.00;;
15913;SDS011;8055;51.930;8.840;2022-12-18T12:14:16;18.13;;;8.57;;
15913;SDS011;8055;51.930;8.840;2022-12-18T12:19:28;16.55;;;8.32;;
15913;SDS011;8055;51.930;8.840;2022-12-18T12:24:56;14.15;;;8.05;;
15913;SDS011;8055;51.930;8.840;2022-12-18T12:30:06;15.07;;;8.45;;
15913;SDS011;8055;51.930;8.840;2022-12-18T12:38:33;18.75;;;9.00;;
15913;SDS011;8055;51.930;8.840;2022-12-18T12:41:04;18.10;;;8.98;;
15913;SDS011;8055;51.930;8.840;2022-12-18T12:43:53;18.08;;;8.45;;
15913;SDS011;8055;51.930;8.840;2022-12-18T12:46:22;17.30;;;8.32;;
15913;SDS011;8055;51.930;8.840;2022-12-18T12:51:37;15.65;;;8.55;;
15913;SDS011;8055;51.930;8.840;2022-12-18T12:54:08;18.25;;;8.93;;
15913;SDS011;8055;51.930;8.840;2022-12-18T12:59:13;16.77;;;8.82;;
15913;SDS011;8055;51.930;8.840;2022-12-18T13:07:35;14.20;;;8.07;;
15913;SDS011;8055;51.930;8.840;2022-12-18T13:15:40;14.60;;;8.43;;
15913;SDS011;8055;51.930;8.840;2022-12-18T13:20:42;17.73;;;8.70;;
15913;SDS011;8055;51.930;8.840;2022-12-18T13:23:25;14.05;;;8.25;;
15913;SDS011;8055;51.930;8.840;2022-12-18T13:25:54;15.70;;;9.00;;
15913;SDS011;8055;51.930;8.840;2022-12-18T13:30:59;16.13;;;7.78;;
15913;SDS011;8055;51.930;8.840;2022-12-18T13:38:22;14.43;;;8.85;;
15913;SDS011;8055;51.930;8.840;2022-12-18T13:45:48;14.90;;;8.13;;
15913;SDS011;8055;51.930;8.840;2022-12-18T13:48:24;15.57;;;8.43;;
15913;SDS011;8055;51.930;8.840;2022-12-18T13:50:59;14.13;;;8.07;;
15913;SDS011;8055;51.930;8.840;2022-12-18T13:53:34;14.90;;;8.07;;
15913;SDS011;8055;51.930;8.840;2022-12-18T13:56:03;15.45;;;8.40;;
15913;SDS011;8055;51.930;8.840;2022-12-18T13:58:30;15.63;;;8.75;;
15913;SDS011;8055;51.930;8.840;2022-12-18T14:00:55;14.23;;;8.18;;
15913;SDS011;8055;51.930;8.840;2022-12-18T14:03:24;19.33;;;8.70;;
15913;SDS011;8055;51.930;8.840;2022-12-18T14:05:56;15.88;;;8.50;;
15913;SDS011;8055;51.930;8.840;2022-12-18T14:08:27;14.45;;;8.70;;
15913;SDS011;8055;51.930;8.840;2022-12-18T14:10:57;16.08;;;7.45;;
15913;SDS011;8055;51.930;8.840;2022-12-18T14:15:56;16.83;;;8.93;;
15913;SDS011;8055;51.930;8.840;2022-12-18T14:20:50;15.10;;;7.80;;
15913;SDS011;8055;51.930;8.840;2022-12-18T14:23:37;15.30;;;8.50;;
15913;SDS011;8055;51.930;8.840;2022-12-18T14:26:26;15.70;;;7.90;;
15913;SDS011;8055;51.930;8.840;2022-12-18T14:28:54;16.98;;;8.27;;
15913;SDS011;8055;51.930;8.840;2022-12-18T14:31:22;16.00;;;8.20;;
15913;SDS011;8055;51.930;8.840;2022-12-18T14:33:51;17.10;;;8.45;;
15913;SDS011;8055;51.930;8.840;2022-12-18T14:36:19;16.58;;;7.93;;
15913;SDS011;8055;51.930;8.840;2022-12-18T14:38:48;17.52;;;9.00;;
15913;SDS011;8055;51.930;8.840;2022-12-18T14:41:18;16.35;;;8.43;;
15913;SDS011;8055;51.930;8.840;2022-12-18T14:43:45;17.65;;;8.70;;
15913;SDS011;8055;51.930;8.840;2022-12-18T14:48:54;19.77;;;8.75;;
15913;SDS011;8055;51.930;8.840;2022-12-18T14:51:21;15.48;;;8.60;;
15913;SDS011;8055;51.930;8.840;2022-12-18T14:53:58;15.82;;;7.78;;
15913;SDS011;8055;51.930;8.840;2022-12-18T14:56:29;15.65;;;8.75;;
15913;SDS011;8055;51.930;8.840;2022-12-18T14:58:59;19.02;;;9.77;;
15913;SDS011;8055;51.930;8.840;2022-12-18T15:01:30;16.25;;;8.77;;
15913;SDS011;8055;51.930;8.840;2022-12-18T15:03:57;18.27;;;9.25;;
15913;SDS011;8055;51.930;8.840;2022-12-18T15:06:34;17.30;;;8.75;;
15913;SDS011;8055;51.930;8.840;2022-12-18T15:09:04;15.52;;;8.65;;
15913;SDS011;8055;51.930;8.840;2022-12-18T15:11:45;18.75;;;9.30;;
15913;SDS011;8055;51.930;8.840;2022-12-18T15:16:55;17.60;;;8.57;;
15913;SDS011;8055;51.930;8.840;2022-12-18T15:19:25;17.80;;;9.73;;
15913;SDS011;8055;51.930;8.840;2022-12-18T15:21:59;20.27;;;9.20;;
15913;SDS011;8055;51.930;8.840;2022-12-18T15:24:26;14.57;;;8.60;;
15913;SDS011;8055;51.930;8.840;2022-12-18T15:26:55;17.13;;;9.10;;
15913;SDS011;8055;51.930;8.840;2022-12-18T15:29:24;17.27;;;9.82;;
15913;SDS011;8055;51.930;8.840;2022-12-18T15:32:04;17.75;;;9.85;;
15913;SDS011;8055;51.930;8.840;2022-12-18T15:34:43;18.30;;;9.88;;
15913;SDS011;8055;51.930;8.840;2022-12-18T15:37:08;18.55;;;10.30;;
15913;SDS011;8055;51.930;8.840;2022-12-18T15:39:33;16.05;;;9.45;;
15913;SDS011;8055;51.930;8.840;2022-12-18T15:42:00;18.13;;;10.18;;
15913;SDS011;8055;51.930;8.840;2022-12-18T15:44:45;18.08;;;9.65;;
15913;SDS011;8055;51.930;8.840;2022-12-18T15:47:11;20.48;;;11.30;;
15913;SDS011;8055;51.930;8.840;2022-12-18T15:49:38;20.83;;;9.75;;
15913;SDS011;8055;51.930;8.840;2022-12-18T15:52:04;21.40;;;10.35;;
15913;SDS011;8055;51.930;8.840;2022-12-18T15:54:30;19.00;;;9.75;;
15913;SDS011;8055;51.930;8.840;2022-12-18T15:57:33;17.67;;;9.27;;
15913;SDS011;8055;51.930;8.840;2022-12-18T15:59:59;19.30;;;9.98;;
15913;SDS011;8055;51.930;8.840;2022-12-18T16:02:25;19.02;;;10.68;;
15913;SDS011;8055;51.930;8.840;2022-12-18T16:04:51;72.20;;;21.73;;
15913;SDS011;8055;51.930;8.840;2022-12-18T16:07:17;19.85;;;10.75;;
15913;SDS011;8055;51.930;8.840;2022-12-18T16:09:43;17.58;;;9.98;;
15913;SDS011;8055;51.930;8.840;2022-12-18T16:12:14;22.05;;;10.88;;
15913;SDS011;8055;51.930;8.840;2022-12-18T16:14:44;19.92;;;10.85;;
15913;SDS011;8055;51.930;8.840;2022-12-18T16:17:10;22.50;;;10.90;;
15913;SDS011;8055;51.930;8.840;2022-12-18T16:19:37;17.92;;;9.95;;
15913;SDS011;8055;51.930;8.840;2022-12-18T16:22:02;22.00;;;10.13;;
15913;SDS011;8055;51.930;8.840;2022-12-18T16:24:29;20.35;;;11.25;;
15913;SDS011;8055;51.930;8.840;2022-12-18T16:26:56;23.88;;;11.52;;
15913;SDS011;8055;51.930;8.840;2022-12-18T16:29:24;23.38;;;11.88;;
15913;SDS011;8055;51.930;8.840;2022-12-18T16:31:55;21.77;;;10.40;;
15913;SDS011;8055;51.930;8.840;2022-12-18T16:34:22;21.40;;;11.57;;
15913;SDS011;8055;51.930;8.840;2022-12-18T16:36:53;19.75;;;10.32;;
15913;SDS011;8055;51.930;8.840;2022-12-18T16:39:20;22.10;;;11.30;;
15913;SDS011;8055;51.930;8.840;2022-12-18T16:41:46;22.33;;;10.23;;
15913;SDS011;8055;51.930;8.840;2022-12-18T16:44:12;21.08;;;10.77;;
15913;SDS011;8055;51.930;8.840;2022-12-18T16:46:38;20.95;;;11.38;;